sensor_id;sensor_type;location;lat;lon;timestamp;P1;durP1;ratioP1;P2;durP2;ratioP2
3767;SDS011;1899;49.966;7.106;2023-01-08T05:02:40;1.92;;;1.83;;
3767;SDS011;1899;49.966;7.106;2023-01-08T05:05:05;1.40;;;1.30;;
3767;SDS011;1899;49.966;7.106;2023-01-08T05:07:31;5.40;;;2.00;;
3767;SDS011;1899;49.966;7.106;2023-01-08T05:09:56;2.13;;;1.70;;
3767;SDS011;1899;49.966;7.106;2023-01-08T05:12:21;3.10;;;1.97;;
3767;SDS011;1899;49.966;7.106;2023-01-08T05:14:46;2.20;;;1.40;;
3767;SDS011;1899;49.966;7.106;2023-01-08T05:17:12;2.70;;;1.50;;
3767;SDS011;1899;49.966;7.106;2023-01-08T05:19:37;1.70;;;1.60;;
3767;SDS011;1899;49.966;7.106;2023-01-08T05:22:02;2.40;;;2.20;;
3767;SDS011;1899;49.966;7.106;2023-01-08T05:24:27;2.27;;;2.07;;
3767;SDS011;1899;49.966;7.106;2023-01-08T05:26:52;2.10;;;1.90;;
3767;SDS011;1899;49.966;7.106;2023-01-08T05:29:18;2.50;;;2.20;;
3767;SDS011;1899;49.966;7.106;2023-01-08T05:31:43;2.13;;;1.92;;
3767;SDS011;1899;49.966;7.106;2023-01-08T05:34:09;1.80;;;1.60;;
3767;SDS011;1899;49.966;7.106;2023-01-08T05:36:34;2.40;;;1.90;;
3767;SDS011;1899;49.966;7.106;2023-01-08T05:38:59;2.40;;;1.90;;
3767;SDS011;1899;49.966;7.106;2023-01-08T05:41:24;1.90;;;1.80;;
3767;SDS011;1899;49.966;7.106;2023-01-08T05:43:49;2.63;;;2.07;;
3767;SDS011;1899;49.966;7.106;2023-01-08T05:46:15;2.00;;;1.90;;
3767;SDS011;1899;49.966;7.106;2023-01-08T05:48:40;2.20;;;2.00;;
3767;SDS011;1899;49.966;7.106;2023-01-08T05:51:05;2.00;;;1.60;;
3767;SDS011;1899;49.966;7.106;2023-01-08T05:53:30;2.40;;;1.63;;
3767;SDS011;1899;49.966;7.106;2023-01-08T05:55:57;1.50;;;1.40;;
3767;SDS011;1899;49.966;7.106;2023-01-08T05:58:23;2.00;;;1.45;;
3767;SDS011;1899;49.966;7.106;2023-01-08T06:00:48;2.17;;;1.50;;
3767;SDS011;1899;49.966;7.106;2023-01-08T06:03:13;1.57;;;1.30;;
3767;SDS011;1899;49.966;7.106;2023-01-08T06:05:38;1.90;;;1.43;;
3767;SDS011;1899;49.966;7.106;2023-01-08T06:08:04;1.60;;;1.40;;
3767;SDS011;1899;49.966;7.106;2023-01-08T06:10:29;1.40;;;1.30;;
3767;SDS011;1899;49.966;7.106;2023-01-08T06:12:54;2.77;;;2.20;;
3767;SDS011;1899;49.966;7.106;2023-01-08T06:15:19;3.30;;;2.40;;
3767;SDS011;1899;49.966;7.106;2023-01-08T06:17:45;2.20;;;2.00;;
3767;SDS011;1899;49.966;7.106;2023-01-08T06:20:10;2.63;;;2.10;;
3767;SDS011;1899;49.966;7.106;2023-01-08T06:22:35;3.43;;;2.40;;
3767;SDS011;1899;49.966;7.106;2023-01-08T06:25:01;3.10;;;2.30;;
3767;SDS011;1899;49.966;7.106;2023-01-08T06:27:26;1.60;;;1.50;;
3767;SDS011;1899;49.966;7.106;2023-01-08T06:29:52;2.30;;;1.53;;
3767;SDS011;1899;49.966;7.106;2023-01-08T06:32:17;2.83;;;1.90;;
3767;SDS011;1899;49.966;7.106;2023-01-08T06:34:42;2.60;;;2.40;;
3767;SDS011;1899;49.966;7.106;2023-01-08T06:37:07;3.23;;;2.10;;
3767;SDS011;1899;49.966;7.106;2023-01-08T06:39:32;1.93;;;1.70;;
3767;SDS011;1899;49.966;7.106;2023-01-08T06:41:58;1.50;;;1.40;;
3767;SDS011;1899;49.966;7.106;2023-01-08T06:44:23;1.60;;;1.50;;
3767;SDS011;1899;49.966;7.106;2023-01-08T06:46:49;2.50;;;1.20;;
3767;SDS011;1899;49.966;7.106;2023-01-08T06:49:14;1.50;;;1.37;;
3767;SDS011;1899;49.966;7.106;2023-01-08T06:51:41;2.70;;;1.10;;
3767;SDS011;1899;49.966;7.106;2023-01-08T06:54:06;1.60;;;1.20;;
3767;SDS011;1899;49.966;7.106;2023-01-08T06:56:32;2.37;;;1.40;;
3767;SDS011;1899;49.966;7.106;2023-01-08T06:58:57;2.10;;;1.00;;
3767;SDS011;1899;49.966;7.106;2023-01-08T07:01:22;2.00;;;1.47;;
3767;SDS011;1899;49.966;7.106;2023-01-08T07:03:47;1.40;;;1.30;;
3767;SDS011;1899;49.966;7.106;2023-01-08T07:06:17;1.20;;;1.10;;
3767;SDS011;1899;49.966;7.106;2023-01-08T07:08:43;1.33;;;1.20;;
3767;SDS011;1899;49.966;7.106;2023-01-08T07:11:08;1.50;;;1.30;;
3767;SDS011;1899;49.966;7.106;2023-01-08T07:13:33;1.27;;;1.17;;
3767;SDS011;1899;49.966;7.106;2023-01-08T07:16:03;1.20;;;1.07;;
3767;SDS011;1899;49.966;7.106;2023-01-08T07:18:29;1.70;;;1.20;;
3767;SDS011;1899;49.966;7.106;2023-01-08T07:20:54;1.30;;;0.90;;
3767;SDS011;1899;49.966;7.106;2023-01-08T07:23:19;1.90;;;1.30;;
3767;SDS011;1899;49.966;7.106;2023-01-08T07:25:44;1.80;;;1.20;;
3767;SDS011;1899;49.966;7.106;2023-01-08T07:28:11;2.30;;;1.17;;
3767;SDS011;1899;49.966;7.106;2023-01-08T07:30:37;1.50;;;1.10;;
3767;SDS011;1899;49.966;7.106;2023-01-08T07:33:02;1.10;;;1.00;;
3767;SDS011;1899;49.966;7.106;2023-01-08T07:35:27;1.52;;;0.90;;
3767;SDS011;1899;49.966;7.106;2023-01-08T07:37:53;2.43;;;1.10;;
3767;SDS011;1899;49.966;7.106;2023-01-08T07:40:18;1.10;;;0.80;;
3767;SDS011;1899;49.966;7.106;2023-01-08T07:42:43;2.30;;;1.10;;
3767;SDS011;1899;49.966;7.106;2023-01-08T07:45:09;1.10;;;1.00;;
3767;SDS011;1899;49.966;7.106;2023-01-08T07:47:34;1.30;;;0.90;;
3767;SDS011;1899;49.966;7.106;2023-01-08T07:49:59;1.20;;;0.90;;
3767;SDS011;1899;49.966;7.106;2023-01-08T07:52:25;1.70;;;1.00;;
3767;SDS011;1899;49.966;7.106;2023-01-08T07:54:50;1.80;;;1.03;;
3767;SDS011;1899;49.966;7.106;2023-01-08T07:57:15;1.20;;;0.90;;
3767;SDS011;1899;49.966;7.106;2023-01-08T07:59:40;1.40;;;0.97;;
3767;SDS011;1899;49.966;7.106;2023-01-08T08:02:06;1.20;;;0.70;;
3767;SDS011;1899;49.966;7.106;2023-01-08T08:04:31;1.50;;;1.00;;
3767;SDS011;1899;49.966;7.106;2023-01-08T08:06:56;1.80;;;1.40;;
3767;SDS011;1899;49.966;7.106;2023-01-08T08:09:21;1.73;;;1.00;;
3767;SDS011;1899;49.966;7.106;2023-01-08T08:11:47;2.40;;;1.50;;
3767;SDS011;1899;49.966;7.106;2023-01-08T08:14:12;3.10;;;1.50;;
3767;SDS011;1899;49.966;7.106;2023-01-08T08:16:37;3.70;;;2.80;;
3767;SDS011;1899;49.966;7.106;2023-01-08T08:19:02;3.90;;;3.00;;
3767;SDS011;1899;49.966;7.106;2023-01-08T08:21:28;3.20;;;2.00;;
3767;SDS011;1899;49.966;7.106;2023-01-08T08:23:53;2.67;;;2.07;;
3767;SDS011;1899;49.966;7.106;2023-01-08T08:26:19;2.13;;;1.83;;
3767;SDS011;1899;49.966;7.106;2023-01-08T08:28:44;1.90;;;1.23;;
3767;SDS011;1899;49.966;7.106;2023-01-08T08:31:09;1.90;;;1.20;;
3767;SDS011;1899;49.966;7.106;2023-01-08T08:33:34;2.17;;;0.83;;
3767;SDS011;1899;49.966;7.106;2023-01-08T08:36:00;1.43;;;0.80;;
3767;SDS011;1899;49.966;7.106;2023-01-08T08:38:25;1.30;;;0.87;;
3767;SDS011;1899;49.966;7.106;2023-01-08T08:40:50;1.10;;;0.80;;
3767;SDS011;1899;49.966;7.106;2023-01-08T08:43:16;1.40;;;0.70;;
3767;SDS011;1899;49.966;7.106;2023-01-08T08:45:41;1.10;;;0.80;;
3767;SDS011;1899;49.966;7.106;2023-01-08T08:48:06;1.00;;;0.80;;
3767;SDS011;1899;49.966;7.106;2023-01-08T08:50:32;1.92;;;0.90;;
3767;SDS011;1899;49.966;7.106;2023-01-08T08:52:58;1.00;;;0.80;;
3767;SDS011;1899;49.966;7.106;2023-01-08T08:55:24;0.90;;;0.80;;
3767;SDS011;1899;49.966;7.106;2023-01-08T08:57:49;2.27;;;0.93;;
3767;SDS011;1899;49.966;7.106;2023-01-08T09:00:15;0.83;;;0.80;;
3767;SDS011;1899;49.966;7.106;2023-01-08T09:02:40;1.70;;;0.80;;
3767;SDS011;1899;49.966;7.106;2023-01-08T09:05:06;1.50;;;1.10;;
3767;SDS011;1899;49.966;7.106;2023-01-08T09:07:31;1.10;;;0.80;;
3767;SDS011;1899;49.966;7.106;2023-01-08T09:09:56;1.00;;;0.80;;
3767;SDS011;1899;49.966;7.106;2023-01-08T09:12:21;1.50;;;0.80;;
3767;SDS011;1899;49.966;7.106;2023-01-08T09:14:47;1.07;;;0.80;;
3767;SDS011;1899;49.966;7.106;2023-01-08T09:17:14;1.48;;;0.90;;
3767;SDS011;1899;49.966;7.106;2023-01-08T09:19:39;2.10;;;1.10;;
3767;SDS011;1899;49.966;7.106;2023-01-08T09:22:04;1.80;;;0.97;;
3767;SDS011;1899;49.966;7.106;2023-01-08T09:24:29;1.70;;;0.80;;
3767;SDS011;1899;49.966;7.106;2023-01-08T09:26:56;3.22;;;0.90;;
3767;SDS011;1899;49.966;7.106;2023-01-08T09:29:21;1.33;;;0.80;;
3767;SDS011;1899;49.966;7.106;2023-01-08T09:31:46;2.10;;;1.00;;
3767;SDS011;1899;49.966;7.106;2023-01-08T09:34:12;2.50;;;0.90;;
3767;SDS011;1899;49.966;7.106;2023-01-08T09:36:37;1.23;;;0.83;;
3767;SDS011;1899;49.966;7.106;2023-01-08T09:39:02;1.15;;;0.80;;
3767;SDS011;1899;49.966;7.106;2023-01-08T09:41:30;3.07;;;1.10;;
3767;SDS011;1899;49.966;7.106;2023-01-08T09:43:56;0.90;;;0.80;;
3767;SDS011;1899;49.966;7.106;2023-01-08T09:46:23;1.13;;;0.90;;
3767;SDS011;1899;49.966;7.106;2023-01-08T09:48:50;0.93;;;0.80;;
3767;SDS011;1899;49.966;7.106;2023-01-08T09:51:17;1.80;;;0.80;;
3767;SDS011;1899;49.966;7.106;2023-01-08T09:53:42;1.25;;;0.80;;
3767;SDS011;1899;49.966;7.106;2023-01-08T09:56:16;2.00;;;0.80;;
3767;SDS011;1899;49.966;7.106;2023-01-08T09:58:43;1.73;;;0.80;;
3767;SDS011;1899;49.966;7.106;2023-01-08T10:01:10;1.27;;;0.80;;
3767;SDS011;1899;49.966;7.106;2023-01-08T10:03:41;4.25;;;1.33;;
3767;SDS011;1899;49.966;7.106;2023-01-08T10:06:08;1.95;;;1.00;;
3767;SDS011;1899;49.966;7.106;2023-01-08T10:08:33;1.90;;;1.00;;
3767;SDS011;1899;49.966;7.106;2023-01-08T10:10:58;1.53;;;0.97;;
3767;SDS011;1899;49.966;7.106;2023-01-08T10:13:24;3.20;;;0.90;;
3767;SDS011;1899;49.966;7.106;2023-01-08T10:15:49;1.10;;;0.80;;
3767;SDS011;1899;49.966;7.106;2023-01-08T10:18:14;2.00;;;0.90;;
3767;SDS011;1899;49.966;7.106;2023-01-08T10:20:42;1.30;;;0.77;;
3767;SDS011;1899;49.966;7.106;2023-01-08T10:23:17;1.80;;;0.90;;
3767;SDS011;1899;49.966;7.106;2023-01-08T10:25:53;1.50;;;0.70;;
3767;SDS011;1899;49.966;7.106;2023-01-08T10:28:22;1.27;;;0.90;;
3767;SDS011;1899;49.966;7.106;2023-01-08T10:30:48;1.70;;;0.70;;
3767;SDS011;1899;49.966;7.106;2023-01-08T10:33:19;1.42;;;0.80;;
3767;SDS011;1899;49.966;7.106;2023-01-08T10:35:50;1.50;;;0.70;;
3767;SDS011;1899;49.966;7.106;2023-01-08T10:38:23;1.13;;;0.80;;
3767;SDS011;1899;49.966;7.106;2023-01-08T10:40:49;1.52;;;0.70;;
3767;SDS011;1899;49.966;7.106;2023-01-08T10:43:24;1.80;;;0.90;;
3767;SDS011;1899;49.966;7.106;2023-01-08T10:45:54;1.00;;;0.60;;
3767;SDS011;1899;49.966;7.106;2023-01-08T10:48:20;1.10;;;0.80;;
3767;SDS011;1899;49.966;7.106;2023-01-08T10:50:45;1.40;;;0.73;;
3767;SDS011;1899;49.966;7.106;2023-01-08T10:53:25;1.97;;;0.90;;
3767;SDS011;1899;49.966;7.106;2023-01-08T10:55:58;1.90;;;0.80;;
3767;SDS011;1899;49.966;7.106;2023-01-08T10:58:26;2.30;;;0.82;;
3767;SDS011;1899;49.966;7.106;2023-01-08T11:00:51;1.30;;;0.80;;
3767;SDS011;1899;49.966;7.106;2023-01-08T11:03:34;1.60;;;0.70;;
3767;SDS011;1899;49.966;7.106;2023-01-08T11:06:08;1.80;;;0.70;;
3767;SDS011;1899;49.966;7.106;2023-01-08T11:08:33;1.10;;;0.70;;
3767;SDS011;1899;49.966;7.106;2023-01-08T11:10:59;1.00;;;0.70;;
3767;SDS011;1899;49.966;7.106;2023-01-08T11:13:25;1.20;;;0.70;;
3767;SDS011;1899;49.966;7.106;2023-01-08T11:16:28;1.40;;;1.17;;
3767;SDS011;1899;49.966;7.106;2023-01-08T11:18:48;1.70;;;1.20;;
3767;SDS011;1899;49.966;7.106;2023-01-08T11:21:24;1.70;;;0.90;;
3767;SDS011;1899;49.966;7.106;2023-01-08T11:24:03;4.30;;;0.90;;
3767;SDS011;1899;49.966;7.106;2023-01-08T11:26:29;1.10;;;0.90;;
3767;SDS011;1899;49.966;7.106;2023-01-08T11:31:33;1.80;;;0.90;;
3767;SDS011;1899;49.966;7.106;2023-01-08T11:34:11;1.70;;;0.80;;
3767;SDS011;1899;49.966;7.106;2023-01-08T11:36:40;1.00;;;0.70;;
3767;SDS011;1899;49.966;7.106;2023-01-08T11:39:07;1.00;;;0.70;;
3767;SDS011;1899;49.966;7.106;2023-01-08T11:41:37;0.90;;;0.80;;
3767;SDS011;1899;49.966;7.106;2023-01-08T11:51:35;1.60;;;1.00;;
3767;SDS011;1899;49.966;7.106;2023-01-08T11:54:25;0.95;;;0.60;;
3767;SDS011;1899;49.966;7.106;2023-01-08T11:59:56;1.10;;;0.70;;
3767;SDS011;1899;49.966;7.106;2023-01-08T12:05:20;1.13;;;0.60;;
3767;SDS011;1899;49.966;7.106;2023-01-08T12:10:44;0.80;;;0.60;;
3767;SDS011;1899;49.966;7.106;2023-01-08T12:13:27;0.80;;;0.60;;
3767;SDS011;1899;49.966;7.106;2023-01-08T12:21:14;1.20;;;0.60;;
3767;SDS011;1899;49.966;7.106;2023-01-08T12:24:01;3.10;;;1.05;;
3767;SDS011;1899;49.966;7.106;2023-01-08T12:29:18;2.00;;;0.70;;
3767;SDS011;1899;49.966;7.106;2023-01-08T12:35:00;1.10;;;0.60;;
3767;SDS011;1899;49.966;7.106;2023-01-08T12:37:32;1.00;;;0.60;;
3767;SDS011;1899;49.966;7.106;2023-01-08T12:42:26;2.05;;;0.60;;
3767;SDS011;1899;49.966;7.106;2023-01-08T12:44:53;1.00;;;0.70;;
3767;SDS011;1899;49.966;7.106;2023-01-08T12:47:21;1.80;;;0.90;;
3767;SDS011;1899;49.966;7.106;2023-01-08T12:49:58;1.40;;;0.80;;
3767;SDS011;1899;49.966;7.106;2023-01-08T12:52:29;1.30;;;0.60;;
3767;SDS011;1899;49.966;7.106;2023-01-08T12:57:41;1.40;;;0.70;;
3767;SDS011;1899;49.966;7.106;2023-01-08T13:00:17;1.40;;;0.70;;
3767;SDS011;1899;49.966;7.106;2023-01-08T13:07:44;0.80;;;0.50;;
3767;SDS011;1899;49.966;7.106;2023-01-08T13:12:53;1.15;;;0.70;;
3767;SDS011;1899;49.966;7.106;2023-01-08T13:15:23;1.10;;;0.70;;
3767;SDS011;1899;49.966;7.106;2023-01-08T13:17:50;1.15;;;0.68;;
3767;SDS011;1899;49.966;7.106;2023-01-08T13:20:20;1.20;;;0.70;;
3767;SDS011;1899;49.966;7.106;2023-01-08T13:22:50;1.10;;;0.70;;
3767;SDS011;1899;49.966;7.106;2023-01-08T13:27:44;1.60;;;0.70;;
3767;SDS011;1899;49.966;7.106;2023-01-08T13:32:53;1.20;;;0.90;;
3767;SDS011;1899;49.966;7.106;2023-01-08T13:35:20;1.33;;;0.90;;
3767;SDS011;1899;49.966;7.106;2023-01-08T13:37:50;1.63;;;0.80;;
3767;SDS011;1899;49.966;7.106;2023-01-08T13:42:59;2.13;;;0.90;;
3767;SDS011;1899;49.966;7.106;2023-01-08T13:45:25;1.80;;;0.80;;
3767;SDS011;1899;49.966;7.106;2023-01-08T13:47:53;1.60;;;0.80;;
3767;SDS011;1899;49.966;7.106;2023-01-08T13:50:20;2.30;;;0.93;;
3767;SDS011;1899;49.966;7.106;2023-01-08T13:52:59;2.17;;;0.70;;
3767;SDS011;1899;49.966;7.106;2023-01-08T13:55:34;1.27;;;0.80;;
3767;SDS011;1899;49.966;7.106;2023-01-08T13:58:02;1.90;;;0.82;;
3767;SDS011;1899;49.966;7.106;2023-01-08T14:00:30;2.90;;;0.90;;
3767;SDS011;1899;49.966;7.106;2023-01-08T14:02:55;3.10;;;1.10;;
3767;SDS011;1899;49.966;7.106;2023-01-08T14:05:22;2.40;;;1.20;;
3767;SDS011;1899;49.966;7.106;2023-01-08T14:07:48;1.70;;;0.70;;
3767;SDS011;1899;49.966;7.106;2023-01-08T14:10:14;1.40;;;0.90;;
3767;SDS011;1899;49.966;7.106;2023-01-08T14:12:39;3.15;;;0.90;;
3767;SDS011;1899;49.966;7.106;2023-01-08T14:15:06;1.30;;;1.00;;
3767;SDS011;1899;49.966;7.106;2023-01-08T14:17:33;1.20;;;0.60;;
3767;SDS011;1899;49.966;7.106;2023-01-08T14:19:59;2.00;;;0.80;;
3767;SDS011;1899;49.966;7.106;2023-01-08T14:22:31;2.10;;;0.80;;
3767;SDS011;1899;49.966;7.106;2023-01-08T14:24:58;1.90;;;0.90;;
3767;SDS011;1899;49.966;7.106;2023-01-08T14:27:26;2.17;;;0.90;;
3767;SDS011;1899;49.966;7.106;2023-01-08T14:29:51;1.70;;;0.88;;
3767;SDS011;1899;49.966;7.106;2023-01-08T14:32:19;1.17;;;0.90;;
3767;SDS011;1899;49.966;7.106;2023-01-08T14:34:45;2.50;;;0.70;;
3767;SDS011;1899;49.966;7.106;2023-01-08T14:37:12;1.45;;;0.80;;
3767;SDS011;1899;49.966;7.106;2023-01-08T14:39:38;2.30;;;0.90;;
3767;SDS011;1899;49.966;7.106;2023-01-08T14:42:07;1.30;;;0.90;;
3767;SDS011;1899;49.966;7.106;2023-01-08T14:44:53;2.35;;;0.98;;
3767;SDS011;1899;49.966;7.106;2023-01-08T14:47:18;2.58;;;1.02;;
3767;SDS011;1899;49.966;7.106;2023-01-08T14:49:48;1.60;;;0.80;;
3767;SDS011;1899;49.966;7.106;2023-01-08T14:52:13;3.70;;;1.10;;
3767;SDS011;1899;49.966;7.106;2023-01-08T14:54:42;1.80;;;0.90;;
3767;SDS011;1899;49.966;7.106;2023-01-08T14:57:10;2.63;;;0.90;;
3767;SDS011;1899;49.966;7.106;2023-01-08T14:59:35;1.83;;;0.80;;
3767;SDS011;1899;49.966;7.106;2023-01-08T15:02:02;2.08;;;0.80;;
3767;SDS011;1899;49.966;7.106;2023-01-08T15:04:28;4.55;;;0.98;;
3767;SDS011;1899;49.966;7.106;2023-01-08T15:07:03;1.65;;;0.73;;
3767;SDS011;1899;49.966;7.106;2023-01-08T15:09:29;2.95;;;1.02;;
3767;SDS011;1899;49.966;7.106;2023-01-08T15:12:02;2.38;;;1.02;;
3767;SDS011;1899;49.966;7.106;2023-01-08T15:14:28;2.42;;;0.80;;
3767;SDS011;1899;49.966;7.106;2023-01-08T15:16:56;3.10;;;1.00;;
3767;SDS011;1899;49.966;7.106;2023-01-08T15:19:22;1.50;;;0.88;;
3767;SDS011;1899;49.966;7.106;2023-01-08T15:21:50;1.50;;;1.00;;
3767;SDS011;1899;49.966;7.106;2023-01-08T15:26:47;1.50;;;0.98;;
3767;SDS011;1899;49.966;7.106;2023-01-08T15:29:15;2.57;;;0.83;;
3767;SDS011;1899;49.966;7.106;2023-01-08T15:34:07;2.20;;;0.90;;
3767;SDS011;1899;49.966;7.106;2023-01-08T15:36:32;2.50;;;0.95;;
3767;SDS011;1899;49.966;7.106;2023-01-08T15:38:57;1.27;;;0.80;;
3767;SDS011;1899;49.966;7.106;2023-01-08T15:41:22;3.13;;;0.90;;
3767;SDS011;1899;49.966;7.106;2023-01-08T15:44:07;4.30;;;1.40;;
3767;SDS011;1899;49.966;7.106;2023-01-08T15:46:33;2.20;;;0.90;;
3767;SDS011;1899;49.966;7.106;2023-01-08T15:48:58;1.50;;;0.90;;
3767;SDS011;1899;49.966;7.106;2023-01-08T15:51:23;2.67;;;1.10;;
3767;SDS011;1899;49.966;7.106;2023-01-08T15:53:49;3.00;;;1.00;;
3767;SDS011;1899;49.966;7.106;2023-01-08T15:56:15;3.23;;;1.20;;
3767;SDS011;1899;49.966;7.106;2023-01-08T15:58:40;2.90;;;1.10;;
3767;SDS011;1899;49.966;7.106;2023-01-08T16:01:05;2.03;;;1.00;;
3767;SDS011;1899;49.966;7.106;2023-01-08T16:03:30;3.87;;;2.20;;
3767;SDS011;1899;49.966;7.106;2023-01-08T16:05:56;3.87;;;2.30;;
3767;SDS011;1899;49.966;7.106;2023-01-08T16:08:21;3.93;;;1.73;;
3767;SDS011;1899;49.966;7.106;2023-01-08T16:10:52;2.70;;;1.53;;
3767;SDS011;1899;49.966;7.106;2023-01-08T16:13:18;2.97;;;1.00;;
3767;SDS011;1899;49.966;7.106;2023-01-08T16:15:43;1.73;;;0.73;;
3767;SDS011;1899;49.966;7.106;2023-01-08T16:18:08;2.70;;;1.17;;
3767;SDS011;1899;49.966;7.106;2023-01-08T16:20:34;2.10;;;1.00;;
3767;SDS011;1899;49.966;7.106;2023-01-08T16:22:59;3.10;;;0.90;;
3767;SDS011;1899;49.966;7.106;2023-01-08T16:25:24;1.10;;;0.80;;
3767;SDS011;1899;49.966;7.106;2023-01-08T16:27:50;1.20;;;0.80;;
3767;SDS011;1899;49.966;7.106;2023-01-08T16:30:15;2.00;;;0.90;;
3767;SDS011;1899;49.966;7.106;2023-01-08T16:32:41;1.17;;;0.90;;
3767;SDS011;1899;49.966;7.106;2023-01-08T16:35:07;1.63;;;0.90;;
3767;SDS011;1899;49.966;7.106;2023-01-08T16:37:32;1.53;;;0.80;;
3767;SDS011;1899;49.966;7.106;2023-01-08T16:39:57;2.10;;;1.10;;
3767;SDS011;1899;49.966;7.106;2023-01-08T16:42:23;3.40;;;1.10;;
3767;SDS011;1899;49.966;7.106;2023-01-08T16:44:48;1.40;;;1.00;;
3767;SDS011;1899;49.966;7.106;2023-01-08T16:47:13;1.13;;;0.80;;
3767;SDS011;1899;49.966;7.106;2023-01-08T16:49:39;2.10;;;1.00;;
3767;SDS011;1899;49.966;7.106;2023-01-08T16:52:04;1.80;;;1.00;;
3767;SDS011;1899;49.966;7.106;2023-01-08T16:54:29;1.52;;;1.00;;
3767;SDS011;1899;49.966;7.106;2023-01-08T16:56:54;3.43;;;0.93;;
3767;SDS011;1899;49.966;7.106;2023-01-08T16:59:20;1.50;;;1.07;;
3767;SDS011;1899;49.966;7.106;2023-01-08T17:01:45;1.90;;;0.83;;
3767;SDS011;1899;49.966;7.106;2023-01-08T17:04:10;1.50;;;1.00;;
3767;SDS011;1899;49.966;7.106;2023-01-08T17:06:35;1.93;;;1.07;;
3767;SDS011;1899;49.966;7.106;2023-01-08T17:09:01;1.50;;;0.80;;
3767;SDS011;1899;49.966;7.106;2023-01-08T17:11:26;1.73;;;1.00;;
3767;SDS011;1899;49.966;7.106;2023-01-08T17:13:51;1.63;;;0.90;;
3767;SDS011;1899;49.966;7.106;2023-01-08T17:16:17;1.80;;;1.20;;
3767;SDS011;1899;49.966;7.106;2023-01-08T17:18:43;3.40;;;1.00;;
3767;SDS011;1899;49.966;7.106;2023-01-08T17:21:09;1.85;;;0.90;;
3767;SDS011;1899;49.966;7.106;2023-01-08T17:23:35;3.10;;;0.80;;
3767;SDS011;1899;49.966;7.106;2023-01-08T17:26:04;2.60;;;1.00;;
3767;SDS011;1899;49.966;7.106;2023-01-08T17:28:30;2.45;;;0.90;;
3767;SDS011;1899;49.966;7.106;2023-01-08T17:33:30;2.45;;;1.30;;
3767;SDS011;1899;49.966;7.106;2023-01-08T17:35:56;1.67;;;0.80;;
3767;SDS011;1899;49.966;7.106;2023-01-08T17:38:22;2.30;;;1.20;;
3767;SDS011;1899;49.966;7.106;2023-01-08T17:40:47;1.93;;;1.17;;
3767;SDS011;1899;49.966;7.106;2023-01-08T17:43:13;2.17;;;1.23;;
3767;SDS011;1899;49.966;7.106;2023-01-08T17:45:38;1.70;;;1.03;;
3767;SDS011;1899;49.966;7.106;2023-01-08T17:48:03;2.00;;;1.40;;
3767;SDS011;1899;49.966;7.106;2023-01-08T17:50:29;4.33;;;1.40;;
3767;SDS011;1899;49.966;7.106;2023-01-08T17:52:55;1.70;;;1.10;;
3767;SDS011;1899;49.966;7.106;2023-01-08T17:55:20;2.00;;;1.10;;
3767;SDS011;1899;49.966;7.106;2023-01-08T17:57:46;3.43;;;1.20;;
3767;SDS011;1899;49.966;7.106;2023-01-08T18:00:11;3.10;;;1.20;;
3767;SDS011;1899;49.966;7.106;2023-01-08T18:02:36;2.03;;;1.37;;
3767;SDS011;1899;49.966;7.106;2023-01-08T18:05:02;3.20;;;1.30;;
3767;SDS011;1899;49.966;7.106;2023-01-08T18:07:27;2.85;;;1.38;;
3767;SDS011;1899;49.966;7.106;2023-01-08T18:09:52;1.87;;;1.20;;
3767;SDS011;1899;49.966;7.106;2023-01-08T18:12:18;2.83;;;1.40;;
3767;SDS011;1899;49.966;7.106;2023-01-08T18:14:43;1.30;;;1.20;;
3767;SDS011;1899;49.966;7.106;2023-01-08T18:17:09;2.25;;;1.50;;
3767;SDS011;1899;49.966;7.106;2023-01-08T18:19:34;1.50;;;1.30;;
3767;SDS011;1899;49.966;7.106;2023-01-08T18:22:00;1.87;;;1.40;;
3767;SDS011;1899;49.966;7.106;2023-01-08T18:24:25;1.70;;;1.30;;
3767;SDS011;1899;49.966;7.106;2023-01-08T18:26:50;2.88;;;1.30;;
3767;SDS011;1899;49.966;7.106;2023-01-08T18:29:16;1.45;;;1.23;;
3767;SDS011;1899;49.966;7.106;2023-01-08T18:31:42;3.53;;;1.70;;
3767;SDS011;1899;49.966;7.106;2023-01-08T18:34:07;2.60;;;1.30;;
3767;SDS011;1899;49.966;7.106;2023-01-08T18:36:33;2.88;;;1.40;;
3767;SDS011;1899;49.966;7.106;2023-01-08T18:38:59;1.83;;;1.40;;
3767;SDS011;1899;49.966;7.106;2023-01-08T18:41:25;1.77;;;1.50;;
3767;SDS011;1899;49.966;7.106;2023-01-08T18:44:09;1.90;;;1.50;;
3767;SDS011;1899;49.966;7.106;2023-01-08T18:46:34;1.70;;;1.50;;
3767;SDS011;1899;49.966;7.106;2023-01-08T18:49:00;2.10;;;1.60;;
3767;SDS011;1899;49.966;7.106;2023-01-08T18:51:25;3.60;;;1.75;;
3767;SDS011;1899;49.966;7.106;2023-01-08T18:53:51;2.92;;;2.15;;
3767;SDS011;1899;49.966;7.106;2023-01-08T18:56:20;2.50;;;2.30;;
3767;SDS011;1899;49.966;7.106;2023-01-08T18:58:46;2.10;;;1.90;;
3767;SDS011;1899;49.966;7.106;2023-01-08T19:01:11;3.13;;;2.30;;
3767;SDS011;1899;49.966;7.106;2023-01-08T19:03:36;2.13;;;1.70;;
3767;SDS011;1899;49.966;7.106;2023-01-08T19:06:02;2.85;;;1.90;;
3767;SDS011;1899;49.966;7.106;2023-01-08T19:08:27;2.90;;;2.03;;
3767;SDS011;1899;49.966;7.106;2023-01-08T19:10:52;3.03;;;2.20;;
3767;SDS011;1899;49.966;7.106;2023-01-08T19:13:18;2.63;;;2.42;;
3767;SDS011;1899;49.966;7.106;2023-01-08T19:15:43;2.50;;;2.30;;
3767;SDS011;1899;49.966;7.106;2023-01-08T19:18:09;3.13;;;2.27;;
3767;SDS011;1899;49.966;7.106;2023-01-08T19:20:34;3.27;;;2.43;;
3767;SDS011;1899;49.966;7.106;2023-01-08T19:22:59;2.80;;;2.50;;
3767;SDS011;1899;49.966;7.106;2023-01-08T19:25:24;2.77;;;2.30;;
3767;SDS011;1899;49.966;7.106;2023-01-08T19:27:50;2.50;;;2.30;;
3767;SDS011;1899;49.966;7.106;2023-01-08T19:30:15;3.03;;;2.60;;
3767;SDS011;1899;49.966;7.106;2023-01-08T19:32:40;3.50;;;2.20;;
3767;SDS011;1899;49.966;7.106;2023-01-08T19:35:06;3.10;;;2.90;;
3767;SDS011;1899;49.966;7.106;2023-01-08T19:37:31;3.30;;;3.10;;
3767;SDS011;1899;49.966;7.106;2023-01-08T19:39:57;4.07;;;2.67;;
3767;SDS011;1899;49.966;7.106;2023-01-08T19:42:25;3.55;;;2.70;;
3767;SDS011;1899;49.966;7.106;2023-01-08T19:45:09;2.60;;;2.40;;
3767;SDS011;1899;49.966;7.106;2023-01-08T19:47:35;3.28;;;2.90;;
3767;SDS011;1899;49.966;7.106;2023-01-08T19:50:00;3.10;;;2.90;;
3767;SDS011;1899;49.966;7.106;2023-01-08T19:52:25;3.80;;;3.37;;
3767;SDS011;1899;49.966;7.106;2023-01-08T19:54:52;3.15;;;2.92;;
3767;SDS011;1899;49.966;7.106;2023-01-08T19:57:19;2.95;;;2.75;;
3767;SDS011;1899;49.966;7.106;2023-01-08T19:59:44;3.67;;;3.05;;
3767;SDS011;1899;49.966;7.106;2023-01-08T20:02:09;3.17;;;2.87;;
3767;SDS011;1899;49.966;7.106;2023-01-08T20:04:35;3.70;;;2.70;;
3767;SDS011;1899;49.966;7.106;2023-01-08T20:07:04;2.80;;;2.47;;
3767;SDS011;1899;49.966;7.106;2023-01-08T20:09:29;2.30;;;2.10;;
3767;SDS011;1899;49.966;7.106;2023-01-08T20:11:55;2.60;;;2.40;;
3767;SDS011;1899;49.966;7.106;2023-01-08T20:14:20;3.50;;;2.50;;
3767;SDS011;1899;49.966;7.106;2023-01-08T20:16:46;2.30;;;2.10;;
3767;SDS011;1899;49.966;7.106;2023-01-08T20:19:11;2.90;;;2.20;;
3767;SDS011;1899;49.966;7.106;2023-01-08T20:21:36;3.70;;;2.70;;
3767;SDS011;1899;49.966;7.106;2023-01-08T20:24:02;3.00;;;2.70;;
3767;SDS011;1899;49.966;7.106;2023-01-08T20:26:33;2.60;;;2.40;;
3767;SDS011;1899;49.966;7.106;2023-01-08T20:28:59;4.13;;;2.70;;
3767;SDS011;1899;49.966;7.106;2023-01-08T20:31:25;3.60;;;2.70;;
3767;SDS011;1899;49.966;7.106;2023-01-08T20:33:54;3.47;;;2.65;;
3767;SDS011;1899;49.966;7.106;2023-01-08T20:36:20;4.70;;;2.60;;
3767;SDS011;1899;49.966;7.106;2023-01-08T20:38:48;4.13;;;2.33;;
3767;SDS011;1899;49.966;7.106;2023-01-08T20:41:14;4.00;;;2.30;;
3767;SDS011;1899;49.966;7.106;2023-01-08T20:43:40;2.53;;;2.30;;
3767;SDS011;1899;49.966;7.106;2023-01-08T20:46:05;2.60;;;2.40;;
3767;SDS011;1899;49.966;7.106;2023-01-08T20:48:31;2.90;;;2.70;;
3767;SDS011;1899;49.966;7.106;2023-01-08T20:50:57;3.30;;;2.80;;
3767;SDS011;1899;49.966;7.106;2023-01-08T20:53:23;4.40;;;2.40;;
3767;SDS011;1899;49.966;7.106;2023-01-08T20:55:48;3.35;;;2.42;;
3767;SDS011;1899;49.966;7.106;2023-01-08T20:58:13;3.10;;;2.80;;
